Погода Сельцо-Карельскоена неделю

Тверская область, Россия

23 - 29 мая
  • 23мая
    Сегодня
    +6°
    +22°
    Небольшая облачность
    ВремяПогодаТемператураВлажностьДавлениеВетер, м/сВероятность осадков
    00:00Ясно и безоблачно+9°C56 %756 мм0.7 м/с2 %
    03:00Ясно и безоблачно+6°C72 %757 мм0.4 м/с2 %
    06:00Ясно и безоблачно+7°C65 %758 мм0.6 м/с2 %
    09:00Ясно и безоблачно+16°C52 %759 мм1.2 м/с2 %
    12:00Ясно и безоблачно+20°C38 %759 мм2.4 м/с2 %
    15:00Небольшая облачность+21°C33 %758 мм1.9 м/с2 %
    18:00Практически безоблачно+22°C35 %758 мм1.4 м/с2 %
    21:00Ясно и безоблачно+15°C46 %758 мм0.3 м/с2 %
  • 24мая
    Пятница
    +8°
    +24°
    Ясно и безоблачно
    ВремяПогодаТемператураВлажностьДавлениеВетер, м/сВероятность осадков
    00:00Небольшая облачность+10°C78 %759 мм0.6 м/с2 %
    03:00Ясно и безоблачно+8°C83 %759 мм0.4 м/с2 %
    06:00Ясно и безоблачно+10°C74 %760 мм0.6 м/с2 %
    09:00Ясно и безоблачно+18°C53 %761 мм1.7 м/с2 %
    12:00Ясно и безоблачно+22°C37 %761 мм2.3 м/с2 %
    15:00Ясно и безоблачно+23°C37 %760 мм2.3 м/с2 %
    18:00Ясно и безоблачно+23°C38 %759 мм2.0 м/с2 %
    21:00Ясно и безоблачно+16°C59 %759 мм0.8 м/с2 %
  • 25мая
    Суббота
    +10°
    +24°
    Ясно и безоблачно
    ВремяПогодаТемператураВлажностьДавлениеВетер, м/сВероятность осадков
    00:00Ясно и безоблачно+11°C64 %759 мм1.0 м/с2 %
    03:00Ясно и безоблачно+8°C63 %759 мм1.0 м/с2 %
    06:00Ясно и безоблачно+10°C65 %759 мм1.1 м/с2 %
    09:00Ясно и безоблачно+18°C49 %758 мм2.1 м/с2 %
    12:00Ясно и безоблачно+22°C37 %758 мм2.9 м/с2 %
    15:00Ясно и безоблачно+24°C35 %757 мм3.0 м/с2 %
    18:00Ясно и безоблачно+24°C37 %755 мм2.3 м/с2 %
    21:00Ясно и безоблачно+17°C57 %755 мм0.5 м/с2 %
  • 26мая
    Воскресенье
    +7°
    +22°
    Пасмурно, ливень
    ВремяПогодаТемператураВлажностьДавлениеВетер, м/сВероятность осадков
    00:00Ясно и безоблачно+13°C66 %755 мм1.0 м/с2 %
    03:00Ясно и безоблачно+11°C75 %755 мм0.9 м/с2 %
    06:00Практически безоблачно+13°C75 %755 мм1.1 м/с7 %
    09:00Облачно с прояснениями+19°C65 %756 мм1.7 м/с29 %
    12:00Пасмурно, ливень+20°C74 %756 мм2.3 м/с55 %
    15:00Пасмурно, ливень+21°C64 %756 мм2.2 м/с52 %
    18:00Облачно с прояснениями+22°C47 %756 мм2.0 м/с32 %
    21:00Ясно и безоблачно+17°C51 %757 мм1.0 м/с15 %
  • 27мая
    Понедельник
    +8°
    +23°
    Ясно и безоблачно
    ВремяПогодаТемператураВлажностьДавлениеВетер, м/сВероятность осадков
    00:00Ясно и безоблачно+12°C61 %758 мм0.9 м/с2 %
    03:00Ясно и безоблачно+8°C72 %759 мм0.6 м/с2 %
    06:00Ясно и безоблачно+9°C67 %760 мм0.6 м/с2 %
    09:00Ясно и безоблачно+17°C50 %760 мм1.6 м/с2 %
    12:00Ясно и безоблачно+20°C40 %760 мм2.4 м/с3 %
    15:00Ясно и безоблачно+22°C36 %759 мм2.0 м/с2 %
    18:00Ясно и безоблачно+22°C38 %759 мм1.4 м/с2 %
    21:00Ясно и безоблачно+16°C63 %758 мм0.3 м/с2 %
Мы используем cookies
Соглашаюсь